Time;durP1;ratioP1;P1;durP2;ratioP2;P2;SDS_P1;SDS_P2;PMS_P1;PMS_P2;Temp;Humidity;BMP_temperature;BMP_pressure;BME280_temperature;BME280_humidity;BME280_pressure;Samples;Min_cycle;Max_cycle;Signal;HPM_P1;HPM_P2
2022/11/07 09:37:42;;;;;;;1.33;0.60;;;;;;;17.21;97.40;100453.63;20702562;28;20054;-89
2022/11/07 09:47:56;;;;;;;1.95;1.20;;;;;;;17.04;96.99;100440.91;20777031;28;20132;-91
2022/11/07 09:58:01;;;;;;;2.25;1.00;;;;;;;17.32;97.82;100465.28;20802439;28;20049;-88
2022/11/07 10:08:08;;;;;;;2.37;0.83;;;;;;;17.40;98.19;100497.69;20802230;28;20140;-90
2022/11/07 10:18:27;;;;;;;2.28;1.00;;;;;;;17.44;98.32;100512.56;20768931;28;20137;-92
2022/11/07 10:28:29;;;;;;;1.98;0.80;;;;;;;17.47;98.37;100517.66;20772211;28;20494;-89
2022/11/07 10:38:32;;;;;;;1.85;0.80;;;;;;;17.49;98.40;100518.34;20765772;28;20045;-90
2022/11/07 10:48:34;;;;;;;2.08;0.85;;;;;;;17.37;98.21;100490.72;20779068;28;20052;-89
2022/11/07 10:58:42;;;;;;;2.08;0.82;;;;;;;17.52;98.11;100520.75;20782474;28;20506;-89
2022/11/07 11:08:46;;;;;;;1.00;0.70;;;;;;;17.30;97.99;100494.16;20760502;28;20053;-90
2022/11/07 11:18:48;;;;;;;2.88;0.88;;;;;;;17.56;97.67;100536.63;20733363;28;20064;-90
2022/11/07 11:28:54;;;;;;;3.08;1.25;;;;;;;17.08;97.12;100469.22;20747499;28;20405;-87
2022/11/07 11:38:57;;;;;;;2.08;0.95;;;;;;;17.57;96.79;100541.88;20741717;28;20053;-91
2022/11/07 11:49:11;;;;;;;2.40;1.02;;;;;;;17.57;96.46;100531.09;20748124;28;20128;-93
2022/11/07 11:59:41;;;;;;;2.50;0.95;;;;;;;17.60;96.36;100541.56;20732340;28;20052;-88
2022/11/07 12:09:55;;;;;;;1.88;1.08;;;;;;;17.40;96.26;100501.22;20733077;28;20045;-92
2022/11/07 12:20:17;;;;;;;1.65;0.73;;;;;;;17.61;96.25;100542.41;20749453;28;20049;-93
2022/11/07 12:30:37;;;;;;;1.85;0.80;;;;;;;17.62;96.61;100544.09;20744270;28;20057;-88
2022/11/07 12:40:57;;;;;;;1.90;1.00;;;;;;;17.62;96.94;100549.50;20739755;28;20052;-90
2022/11/07 12:51:14;;;;;;;2.40;1.10;;;;;;;17.61;96.48;100547.78;20741955;28;20111;-88
2022/11/07 13:01:21;;;;;;;3.58;0.90;;;;;;;17.49;96.79;100529.13;20743143;28;20135;-90
2022/11/07 13:11:50;;;;;;;1.58;0.88;;;;;;;17.63;96.94;100546.66;20768455;28;20049;-87
2022/11/07 13:22:34;;;;;;;1.95;0.60;;;;;;;17.63;97.19;100537.72;20746091;28;20074;-91
2022/11/07 13:32:43;;;;;;;3.55;0.77;;;;;;;17.34;97.29;100493.72;20797622;28;20497;-89
2022/11/07 13:42:45;;;;;;;2.13;0.82;;;;;;;17.63;97.36;100540.44;20812822;28;20107;-89
2022/11/07 13:52:54;;;;;;;0.90;0.90;;;;;;;17.63;97.44;100545.81;20815144;28;20061;-89
2022/11/07 14:02:58;;;;;;;1.65;0.77;;;;;;;17.63;97.52;100548.50;20814816;28;20053;-90
2022/11/07 14:13:17;;;;;;;2.13;0.73;;;;;;;17.01;97.49;100452.78;20815842;28;20080;-89
2022/11/07 14:23:22;;;;;;;0.82;0.60;;;;;;;17.62;97.48;100552.19;20809544;28;20062;-90
2022/11/07 14:33:24;;;;;;;1.50;0.70;;;;;;;17.62;97.42;100549.50;20817804;28;20056;-89
2022/11/07 14:43:27;;;;;;;2.08;0.70;;;;;;;17.35;97.51;100508.03;20811030;28;20498;-90
2022/11/07 14:53:48;;;;;;;1.17;0.55;;;;;;;17.62;97.48;100557.56;20803245;28;20330;-89
2022/11/07 15:04:04;;;;;;;0.90;0.40;;;;;;;17.61;97.63;100558.56;20802158;28;20045;-90
2022/11/07 15:14:21;;;;;;;2.00;1.02;;;;;;;17.62;97.45;100552.19;20817252;28;20049;-90
2022/11/07 15:24:44;;;;;;;0.98;0.52;;;;;;;17.62;97.43;100550.34;20811176;28;20072;-90
2022/11/07 15:34:48;;;;;;;1.15;0.60;;;;;;;17.39;97.33;100517.50;20809105;28;20131;-90
2022/11/07 15:45:10;;;;;;;1.70;0.73;;;;;;;17.61;97.63;100554.03;20813812;28;20072;-89
2022/11/07 15:55:13;;;;;;;1.45;0.57;;;;;;;17.59;97.34;100564.09;20809013;28;20445;-90
2022/11/07 16:05:15;;;;;;;1.10;0.60;;;;;;;17.61;97.35;100566.63;20786862;28;20064;-89
2022/11/07 16:15:20;;;;;;;1.25;0.65;;;;;;;17.62;97.40;100573.72;20797211;28;20580;-90
2022/11/07 16:25:23;;;;;;;1.02;0.60;;;;;;;17.52;97.17;100571.06;20817901;28;20045;-89
2022/11/07 16:35:24;;;;;;;1.25;0.50;;;;;;;17.62;97.23;100595.25;20804101;28;20037;-89
2022/11/07 16:45:26;;;;;;;1.58;0.77;;;;;;;17.46;97.15;100566.25;20806337;28;20049;-89
2022/11/07 16:55:30;;;;;;;1.58;0.70;;;;;;;17.52;96.79;100585.34;20765248;28;20050;-87
2022/11/07 17:05:32;;;;;;;1.93;0.70;;;;;;;17.62;96.04;100585.34;20786117;28;20077;-84
2022/11/07 17:15:35;;;;;;;1.50;0.60;;;;;;;17.31;96.02;100541.59;20788235;28;20045;-87
2022/11/07 17:25:37;;;;;;;2.25;0.80;;;;;;;17.34;96.37;100544.84;20803671;28;20062;-86
2022/11/07 17:35:39;;;;;;;1.35;0.85;;;;;;;17.60;96.29;100581.09;20767049;28;20056;-87
2022/11/07 17:45:40;;;;;;;1.38;0.82;;;;;;;17.59;96.50;100580.25;20759185;28;20058;-88
2022/11/07 17:55:41;;;;;;;2.47;0.60;;;;;;;17.50;96.40;100575.72;20750079;28;20195;-90
2022/11/07 18:05:43;;;;;;;1.98;0.70;;;;;;;17.59;96.52;100590.16;20741511;28;20050;-89
2022/11/07 18:15:44;;;;;;;2.03;0.77;;;;;;;17.47;96.51;100571.47;20691639;28;20038;-93
2022/11/07 18:25:46;;;;;;;0.68;0.68;;;;;;;17.35;96.58;100549.22;20770898;28;20045;-88
2022/11/07 18:35:47;;;;;;;1.23;0.60;;;;;;;17.54;96.56;100586.06;20764046;28;20128;-86
2022/11/07 18:45:49;;;;;;;1.10;0.60;;;;;;;17.38;96.58;100567.78;20757112;28;20057;-86
2022/11/07 18:56:02;;;;;;;1.08;0.68;;;;;;;17.54;96.61;100572.59;20752959;28;20053;-84
2022/11/07 19:06:05;;;;;;;1.38;0.80;;;;;;;17.54;96.51;100577.97;20754996;28;20953;-88
2022/11/07 19:16:08;;;;;;;0.77;0.65;;;;;;;17.53;96.72;100580.81;20771060;28;20057;-89
2022/11/07 19:26:10;;;;;;;1.17;0.73;;;;;;;17.53;96.70;100592.44;20787770;28;20053;-86
2022/11/07 19:36:14;;;;;;;0.95;0.60;;;;;;;17.54;96.89;100582.53;20783433;28;20061;-89
2022/11/07 19:46:19;;;;;;;1.98;1.13;;;;;;;17.53;96.82;100583.53;20823359;28;20080;-89
2022/11/07 19:56:21;;;;;;;1.07;0.50;;;;;;;17.52;96.85;100584.50;20815427;28;20120;-89
2022/11/07 20:06:25;;;;;;;1.52;0.70;;;;;;;17.49;96.78;100591.00;20813281;28;20045;-89
2022/11/07 20:16:27;;;;;;;1.83;0.70;;;;;;;17.28;96.84;100560.72;20793602;28;20057;-89
2022/11/07 20:26:31;;;;;;;1.55;0.60;;;;;;;17.46;97.00;100604.75;20799501;28;20069;-89
2022/11/07 20:36:33;;;;;;;0.80;0.60;;;;;;;17.46;97.00;100604.75;20785843;28;20140;-89
2022/11/07 20:46:37;;;;;;;2.40;0.70;;;;;;;17.35;96.98;100605.72;20796656;28;20060;-88
2022/11/07 20:56:39;;;;;;;1.00;0.50;;;;;;;17.40;97.15;100618.78;20793930;28;20068;-88
2022/11/07 21:06:40;;;;;;;0.73;0.70;;;;;;;17.43;96.98;100628.38;20784525;28;20411;-89
2022/11/07 21:16:44;;;;;;;1.33;0.60;;;;;;;17.42;97.01;100630.25;20788498;28;20103;-88
2022/11/07 21:26:45;;;;;;;1.00;0.55;;;;;;;17.42;97.20;100632.06;20780560;28;20046;-88
2022/11/07 21:36:47;;;;;;;1.95;0.50;;;;;;;17.41;97.12;100631.25;20801761;28;20049;-88
2022/11/07 21:46:48;;;;;;;0.40;0.40;;;;;;;17.42;97.18;100634.75;20793005;28;20054;-89
2022/11/07 21:56:49;;;;;;;0.73;0.50;;;;;;;17.28;97.06;100606.44;20795895;28;20045;-90
2022/11/07 22:06:51;;;;;;;1.08;0.60;;;;;;;17.29;97.20;100616.22;20791495;28;20581;-89
2022/11/07 22:16:53;;;;;;;1.23;0.55;;;;;;;17.38;97.26;100621.59;20791541;28;20069;-89
2022/11/07 22:26:56;;;;;;;0.98;0.52;;;;;;;17.25;97.05;100605.75;20757414;28;20056;-88
2022/11/07 22:36:57;;;;;;;1.05;0.60;;;;;;;17.37;97.15;100625.28;20803648;28;20144;-88
2022/11/07 22:46:58;;;;;;;1.45;0.60;;;;;;;17.34;97.05;100605.88;20799660;28;20053;-88
2022/11/07 22:57:00;;;;;;;0.45;0.43;;;;;;;17.37;97.04;100602.91;20829223;28;20064;-87
2022/11/07 23:07:01;;;;;;;1.05;0.57;;;;;;;17.09;97.16;100551.63;20823538;28;20053;-88
2022/11/07 23:17:03;;;;;;;0.60;0.60;;;;;;;17.36;97.06;100593.13;20750865;28;20491;-89
2022/11/07 23:27:04;;;;;;;0.73;0.40;;;;;;;17.22;96.98;100571.00;20717257;28;20407;-89
2022/11/07 23:37:12;;;;;;;1.00;0.68;;;;;;;17.35;97.07;100576.13;20769324;28;20056;-89
